Close Search

Base
°C
Summit
°C

WEATHER AT A GLANCE

Image Slideshow

RMR Village

Revelstoke Mountain Resort -  RMR Village Webcam

Top of The Stoke

Revelstoke Mountain Resort -  Top of The Stoke Webcam

Top of Stellar

Revelstoke Mountain Resort -  Top of Stellar Webcam

Mackenzie Outpost

Revelstoke Mountain Resort -  Mackenzie Outpost Webcam

Ripper

Revelstoke Mountain Resort -  Ripper Webcam
Base
°C
Summit
°C
Wind (Summit)
km/h

Today's Forecast

Subpeak Weather

Time Avg. Air Temp Dew Point Avg. Rel Humidity Avg. 2 Min Wind Speed Max Gust Velocity MGV Time MGV Direction Avg. Spot Wind Velocity
2026-05-02 09:15:004° C-3° C59%8 km/h11 km/h09:14:00N8 km/h
08:15:003° C-4° C61%9 km/h16 km/h08:14:00N6 km/h
07:15:003° C-4° C62%18 km/h18 km/h07:15:00NW17 km/h
06:15:003° C-3° C64%10 km/h14 km/h06:11:00W11 km/h
05:15:003° C-4° C59%13 km/h13 km/h05:11:00NW12 km/h
04:15:004° C-4° C61%10 km/h11 km/h04:14:00NW10 km/h
03:15:004° C-2° C64%7 km/h8 km/h03:11:00W7 km/h
02:15:004° C-2° C64%9 km/h9 km/h02:14:00SW9 km/h
01:15:004° C-2° C64%9 km/h9 km/h01:11:00SW9 km/h
00:15:004° C-3° C62%8 km/h9 km/h00:15:00S8 km/h
23:15:004° C-4° C57%4 km/h4 km/h23:11:00W4 km/h
22:15:004° C-3° C64%13 km/h14 km/h22:11:00NE13 km/h
21:15:004° C-2° C62%0 km/h1 km/h21:11:00N0 km/h
20:15:004° C-3° C61%5 km/h6 km/h20:14:00W5 km/h
19:15:004° C-3° C61%13 km/h14 km/h19:14:00SW12 km/h
18:15:004° C-3° C60%11 km/h13 km/h18:11:00SW10 km/h
17:15:004° C-3° C60%14 km/h15 km/h17:11:00SW13 km/h
16:15:004° C-3° C59%8 km/h9 km/h16:15:00SW7 km/h
15:15:004° C-2° C63%10 km/h11 km/h15:15:00S9 km/h
14:15:005° C-3° C58%7 km/h17 km/h14:12:00W8 km/h
13:15:004° C-3° C61%15 km/h19 km/h13:14:00SW13 km/h
12:15:003° C-3° C63%11 km/h14 km/h12:15:00S11 km/h
11:15:004° C-3° C60%9 km/h13 km/h11:12:00S12 km/h
10:15:003° C-4° C62%15 km/h19 km/h10:11:00S15 km/h

Time Avg. Air Temp Dew Point Avg. Rel Humidity Avg. 2 Min Wind Speed Max Gust Velocity MGV Time MGV Direction Avg. Spot Wind Velocity
2026-05-02 09:15:004° C-3° C59%8 km/h11 km/h09:14:00N8 km/h
09:10:004° C-3° C61%3 km/h9 km/h09:06:00NE4 km/h
09:05:004° C-4° C60%7 km/h10 km/h09:04:00NE4 km/h
09:00:003° C-3° C63%4 km/h11 km/h09:00:00N3 km/h
08:55:003° C-3° C61%4 km/h11 km/h08:51:00E4 km/h
08:50:004° C-3° C60%5 km/h8 km/h08:50:00NE5 km/h
08:45:003° C-4° C60%3 km/h10 km/h08:41:00NW3 km/h
08:40:003° C-4° C60%7 km/h11 km/h08:39:00N4 km/h
08:35:003° C-4° C62%8 km/h11 km/h08:34:00NE5 km/h
08:30:003° C-3° C63%3 km/h13 km/h08:27:00N5 km/h
08:25:003° C-3° C63%10 km/h14 km/h08:24:00N8 km/h
08:20:003° C-3° C63%7 km/h12 km/h08:19:00N7 km/h
08:15:003° C-4° C61%9 km/h16 km/h08:14:00N6 km/h

We value your privacy
We use cookies to enhance your browsing experience, serve personalized ads or content, and analyze our traffic. By clicking "Allow Cookies", you consent to our use of cookies. For additional details view our Privacy Policy.
Cookie preferences

You can control how your data is used on our website. Learn more below about the cookies we use by reviewing our Privacy Policy.

Your cookie preferences have been saved.